Flight Track Log - Related Links

Times and Time Zones

All times are in EDT time to prevent confusion due to time zone crossing. See the RPA3228 flight status page for this flight to view local times or setup timezone preferences in your user account.

Time Position Orientation Groundspeed Altitude Reporting Facility
EDT Latitude Longitude Course Direction KTS MPH feet Rate Location/Type
Wed 10:44:31 AM 38.8167 -77.0333 337° Northwest 155 178 1,800  Level Potomac TRACON
Wed 10:45:31 AM 38.7667 -77.0500 195° South 234 269 3,700 2,500 Climbing Potomac TRACON
Wed 10:46:31 AM 38.7333 -77.1333 243° Southwest 260 299 6,800 3,150 Climbing Potomac TRACON
Wed 10:47:00 AM 39.1617 -77.2005 330° Northwest  Level FlightAware Approximate
Wed 10:47:31 AM 38.7333 -77.2167 270° West 289 333 10,000  Level Potomac TRACON
Wed 10:48:00 AM 39.2447 -77.2396 337° Northwest  Level FlightAware Approximate
Wed 10:48:31 AM 38.8167 -77.2667 335° Northwest 328 377 12,300  Level Potomac TRACON
Wed 10:49:00 AM 39.3265 -77.2850 337° Northwest  Level FlightAware Approximate
Wed 10:49:32 AM 38.8833 -77.3167 330° Northwest 317 365 15,100  Level Potomac TRACON
Wed 10:51:32 AM 39.0625 -77.3853 343° North 354 407 17,000 1,028 Climbing Washington Center
Wed 10:52:33 AM 39.1667 -77.3986 354° North 361 415 18,200 1,109 Climbing Washington Center
Wed 10:53:31 AM 39.2789 -77.4122 355° North 385 443 19,200 1,348 Climbing Washington Center
Wed 10:55:40 AM 39.5347 -77.4447 354° North 414 476 22,400 1,302 Climbing New York Center
Wed 10:56:40 AM 39.6550 -77.4586 355° North 424 488 23,300 1,150 Climbing New York Center
Wed 10:57:40 AM 39.7758 -77.4567 North 429 494 24,700 1,200 Climbing New York Center
Wed 10:58:40 AM 39.9000 -77.4739 354° North 429 494 25,700 650 Climbing New York Center
Wed 10:59:40 AM 40.0164 -77.5203 343° North 435 501 26,000 149 Climbing New York Center
Wed 11:00:41 AM 40.1247 -77.5553 346° North 446 513 26,000  Level New York Center
Wed 11:01:41 AM 40.2433 -77.5994 344° North 446 513 26,000  Level New York Center
Wed 11:02:42 AM 40.3614 -77.6467 343° North 446 513 26,000  Level New York Center
Wed 11:03:39 AM 40.4800 -77.6883 345° North 446 513 26,000  Level New York Center
Wed 11:04:40 AM 40.6000 -77.7361 343° North 446 513 26,000  Level New York Center
Wed 11:06:36 AM 40.8322 -77.8222 344° North 456 525 26,000  Level Cleveland Center
Wed 11:07:36 AM 40.9522 -77.8694 343° North 456 525 26,000  Level Cleveland Center
Wed 11:08:36 AM 41.0742 -77.9142 345° North 456 525 26,000  Level Cleveland Center
Wed 11:09:36 AM 41.1942 -77.9617 343° North 451 519 26,000  Level Cleveland Center
Wed 11:10:36 AM 41.3289 -78.0142 344° North 451 519 26,000  Level Cleveland Center
Wed 11:11:36 AM 41.4486 -78.0622 343° North 451 519 26,000  Level Cleveland Center
Wed 11:12:36 AM 41.5683 -78.1047 345° North 451 519 26,000  Level Cleveland Center
Wed 11:13:36 AM 41.6903 -78.1528 344° North 451 519 26,000 -450 Level Cleveland Center
Wed 11:14:36 AM 41.8103 -78.2011 343° North 446 513 25,100 -1,750 Descending Cleveland Center
Wed 11:15:36 AM 41.9258 -78.2472 343° North 446 513 22,500 -2,450 Descending Cleveland Center
Wed 11:16:36 AM 42.0308 -78.2881 344° North 425 489 20,200 -2,350 Descending Cleveland Center
Wed 11:17:36 AM 42.1339 -78.3292 344° North 407 468 17,800 -2,250 Descending Cleveland Center
Wed 11:18:36 AM 42.2367 -78.3675 345° North 384 442 15,700 -2,150 Descending Cleveland Center
Wed 11:19:36 AM 42.3333 -78.4092 342° North 373 429 13,500 -2,350 Descending Cleveland Center
Wed 11:20:36 AM 42.4217 -78.4400 346° North 352 405 11,000 -1,550 Descending Cleveland Center
Wed 11:21:36 AM 42.4972 -78.4739 342° North 316 364 10,400 -1,300 Descending Cleveland Center
Wed 11:22:36 AM 42.5725 -78.4800 357° North 279 321 8,400 -2,000 Descending Cleveland Center
Wed 11:23:36 AM 42.6514 -78.4717 North 274 315 6,400 -1,700 Descending Cleveland Center
Wed 11:24:36 AM 42.7283 -78.4633 North 274 315 5,000 -1,000 Descending Cleveland Center
Wed 11:25:36 AM 42.8036 -78.4694 357° North 274 315 4,400 -500 Descending Cleveland Center
Wed 11:26:36 AM 42.8786 -78.4781 355° North 274 315 4,000 -350 Descending Cleveland Center
Wed 11:27:36 AM 42.9456 -78.4928 351° North 274 315 3,700 -513 Descending Cleveland Center
Wed 11:29:55 AM 43.0333 -78.6000 318° Northwest 187 215 2,300 -604 Descending Buffalo TRACON

Login

Don't have an account? Register now (free) for customized features, flight alerts, and more!